sensor_id;sensor_type;location;lat;lon;timestamp;P1;durP1;ratioP1;P2;durP2;ratioP2
31128;SDS011;17777;48.770;8.944;2024-02-16T00:00:23;3.53;;;2.22;;
31128;SDS011;17777;48.770;8.944;2024-02-16T00:02:52;2.80;;;2.45;;
31128;SDS011;17777;48.770;8.944;2024-02-16T00:05:18;2.90;;;2.20;;
31128;SDS011;17777;48.770;8.944;2024-02-16T00:07:43;3.17;;;2.28;;
31128;SDS011;17777;48.770;8.944;2024-02-16T00:10:09;4.30;;;2.50;;
31128;SDS011;17777;48.770;8.944;2024-02-16T00:12:37;4.13;;;2.47;;
31128;SDS011;17777;48.770;8.944;2024-02-16T00:15:05;3.40;;;2.20;;
31128;SDS011;17777;48.770;8.944;2024-02-16T00:17:31;3.53;;;2.10;;
31128;SDS011;17777;48.770;8.944;2024-02-16T00:19:58;3.50;;;2.30;;
31128;SDS011;17777;48.770;8.944;2024-02-16T00:22:24;3.03;;;2.13;;
31128;SDS011;17777;48.770;8.944;2024-02-16T00:24:51;2.13;;;1.80;;
31128;SDS011;17777;48.770;8.944;2024-02-16T00:27:17;3.28;;;2.28;;
31128;SDS011;17777;48.770;8.944;2024-02-16T00:29:43;3.95;;;2.08;;
31128;SDS011;17777;48.770;8.944;2024-02-16T00:32:11;2.90;;;1.90;;
31128;SDS011;17777;48.770;8.944;2024-02-16T00:34:37;2.70;;;2.00;;
31128;SDS011;17777;48.770;8.944;2024-02-16T00:37:04;3.63;;;2.35;;
31128;SDS011;17777;48.770;8.944;2024-02-16T00:39:35;3.03;;;1.92;;
31128;SDS011;17777;48.770;8.944;2024-02-16T00:42:02;3.65;;;2.15;;
31128;SDS011;17777;48.770;8.944;2024-02-16T00:44:28;3.03;;;2.30;;
31128;SDS011;17777;48.770;8.944;2024-02-16T00:46:54;3.95;;;1.88;;
31128;SDS011;17777;48.770;8.944;2024-02-16T00:49:20;2.75;;;1.80;;
31128;SDS011;17777;48.770;8.944;2024-02-16T00:51:45;2.58;;;1.98;;
31128;SDS011;17777;48.770;8.944;2024-02-16T00:54:11;4.20;;;2.10;;
31128;SDS011;17777;48.770;8.944;2024-02-16T00:56:37;3.22;;;2.20;;
31128;SDS011;17777;48.770;8.944;2024-02-16T00:59:03;3.85;;;2.33;;
31128;SDS011;17777;48.770;8.944;2024-02-16T01:01:30;6.00;;;2.10;;
31128;SDS011;17777;48.770;8.944;2024-02-16T01:03:56;3.60;;;2.25;;
31128;SDS011;17777;48.770;8.944;2024-02-16T01:06:22;2.88;;;2.20;;
31128;SDS011;17777;48.770;8.944;2024-02-16T01:08:47;3.97;;;2.25;;
31128;SDS011;17777;48.770;8.944;2024-02-16T01:11:14;2.58;;;1.90;;
31128;SDS011;17777;48.770;8.944;2024-02-16T01:13:40;2.00;;;1.58;;
31128;SDS011;17777;48.770;8.944;2024-02-16T01:16:06;3.33;;;1.92;;
31128;SDS011;17777;48.770;8.944;2024-02-16T01:18:32;6.53;;;2.00;;
31128;SDS011;17777;48.770;8.944;2024-02-16T01:21:01;2.92;;;1.65;;
31128;SDS011;17777;48.770;8.944;2024-02-16T01:23:28;3.03;;;2.00;;
31128;SDS011;17777;48.770;8.944;2024-02-16T01:25:54;2.42;;;2.00;;
31128;SDS011;17777;48.770;8.944;2024-02-16T01:28:20;2.15;;;1.90;;
31128;SDS011;17777;48.770;8.944;2024-02-16T01:30:46;2.15;;;1.77;;
31128;SDS011;17777;48.770;8.944;2024-02-16T01:33:12;7.70;;;2.10;;
31128;SDS011;17777;48.770;8.944;2024-02-16T01:35:38;2.67;;;2.03;;
31128;SDS011;17777;48.770;8.944;2024-02-16T01:38:04;2.25;;;1.77;;
31128;SDS011;17777;48.770;8.944;2024-02-16T01:40:30;2.60;;;1.83;;
31128;SDS011;17777;48.770;8.944;2024-02-16T01:42:56;2.85;;;1.70;;
31128;SDS011;17777;48.770;8.944;2024-02-16T01:45:22;2.95;;;1.67;;
31128;SDS011;17777;48.770;8.944;2024-02-16T01:47:51;2.60;;;1.73;;
31128;SDS011;17777;48.770;8.944;2024-02-16T01:50:18;2.85;;;2.05;;
31128;SDS011;17777;48.770;8.944;2024-02-16T01:52:45;2.53;;;1.90;;
31128;SDS011;17777;48.770;8.944;2024-02-16T01:55:12;1.85;;;1.60;;
31128;SDS011;17777;48.770;8.944;2024-02-16T01:57:39;5.18;;;1.75;;
31128;SDS011;17777;48.770;8.944;2024-02-16T02:00:08;1.77;;;1.40;;
31128;SDS011;17777;48.770;8.944;2024-02-16T02:02:35;2.80;;;1.52;;
31128;SDS011;17777;48.770;8.944;2024-02-16T02:05:01;2.40;;;1.63;;
31128;SDS011;17777;48.770;8.944;2024-02-16T02:07:28;3.45;;;1.77;;
31128;SDS011;17777;48.770;8.944;2024-02-16T02:09:55;2.78;;;1.70;;
31128;SDS011;17777;48.770;8.944;2024-02-16T02:12:21;1.70;;;1.60;;
31128;SDS011;17777;48.770;8.944;2024-02-16T02:14:50;1.85;;;1.45;;
31128;SDS011;17777;48.770;8.944;2024-02-16T02:17:17;1.70;;;1.45;;
31128;SDS011;17777;48.770;8.944;2024-02-16T02:19:44;1.55;;;1.30;;
31128;SDS011;17777;48.770;8.944;2024-02-16T02:22:17;2.30;;;1.38;;
31128;SDS011;17777;48.770;8.944;2024-02-16T02:24:45;1.63;;;1.33;;
31128;SDS011;17777;48.770;8.944;2024-02-16T02:27:12;1.70;;;1.38;;
31128;SDS011;17777;48.770;8.944;2024-02-16T02:29:38;1.25;;;1.10;;
31128;SDS011;17777;48.770;8.944;2024-02-16T02:32:05;1.48;;;1.20;;
31128;SDS011;17777;48.770;8.944;2024-02-16T02:34:32;1.77;;;1.48;;
31128;SDS011;17777;48.770;8.944;2024-02-16T02:36:58;1.20;;;1.10;;
31128;SDS011;17777;48.770;8.944;2024-02-16T02:39:24;1.75;;;1.40;;
31128;SDS011;17777;48.770;8.944;2024-02-16T02:41:50;1.80;;;1.17;;
31128;SDS011;17777;48.770;8.944;2024-02-16T02:44:17;1.13;;;0.98;;
31128;SDS011;17777;48.770;8.944;2024-02-16T02:46:44;1.17;;;0.95;;
31128;SDS011;17777;48.770;8.944;2024-02-16T02:49:10;3.33;;;1.08;;
31128;SDS011;17777;48.770;8.944;2024-02-16T02:51:36;1.65;;;1.17;;
31128;SDS011;17777;48.770;8.944;2024-02-16T02:54:01;1.40;;;0.80;;
31128;SDS011;17777;48.770;8.944;2024-02-16T02:56:27;1.75;;;1.30;;
31128;SDS011;17777;48.770;8.944;2024-02-16T02:58:53;2.28;;;0.90;;
31128;SDS011;17777;48.770;8.944;2024-02-16T03:01:19;2.17;;;0.95;;
31128;SDS011;17777;48.770;8.944;2024-02-16T03:03:45;1.27;;;1.00;;
31128;SDS011;17777;48.770;8.944;2024-02-16T03:06:12;1.67;;;1.20;;
31128;SDS011;17777;48.770;8.944;2024-02-16T03:08:38;1.20;;;0.98;;
31128;SDS011;17777;48.770;8.944;2024-02-16T03:11:04;1.40;;;1.10;;
31128;SDS011;17777;48.770;8.944;2024-02-16T03:13:31;1.10;;;0.80;;
31128;SDS011;17777;48.770;8.944;2024-02-16T03:15:58;1.75;;;1.10;;
31128;SDS011;17777;48.770;8.944;2024-02-16T03:18:24;1.58;;;1.02;;
31128;SDS011;17777;48.770;8.944;2024-02-16T03:20:49;1.02;;;0.93;;
31128;SDS011;17777;48.770;8.944;2024-02-16T03:23:15;1.30;;;1.13;;
31128;SDS011;17777;48.770;8.944;2024-02-16T03:25:41;2.05;;;1.15;;
31128;SDS011;17777;48.770;8.944;2024-02-16T03:28:08;1.55;;;1.10;;
31128;SDS011;17777;48.770;8.944;2024-02-16T03:30:38;1.60;;;1.25;;
31128;SDS011;17777;48.770;8.944;2024-02-16T03:33:05;1.25;;;1.15;;
31128;SDS011;17777;48.770;8.944;2024-02-16T03:35:30;2.35;;;1.23;;
31128;SDS011;17777;48.770;8.944;2024-02-16T03:37:56;1.35;;;1.13;;
31128;SDS011;17777;48.770;8.944;2024-02-16T03:40:22;1.60;;;1.10;;
31128;SDS011;17777;48.770;8.944;2024-02-16T03:42:50;1.38;;;1.20;;
31128;SDS011;17777;48.770;8.944;2024-02-16T03:45:16;1.20;;;1.10;;
31128;SDS011;17777;48.770;8.944;2024-02-16T03:47:42;2.45;;;1.40;;
31128;SDS011;17777;48.770;8.944;2024-02-16T03:50:08;2.03;;;1.50;;
31128;SDS011;17777;48.770;8.944;2024-02-16T03:52:36;2.38;;;1.30;;
31128;SDS011;17777;48.770;8.944;2024-02-16T03:55:02;1.35;;;1.17;;
31128;SDS011;17777;48.770;8.944;2024-02-16T03:57:30;1.80;;;1.30;;
31128;SDS011;17777;48.770;8.944;2024-02-16T03:59:56;1.83;;;1.40;;
31128;SDS011;17777;48.770;8.944;2024-02-16T04:02:22;2.92;;;1.80;;
31128;SDS011;17777;48.770;8.944;2024-02-16T04:04:48;2.38;;;1.65;;
31128;SDS011;17777;48.770;8.944;2024-02-16T04:07:13;2.20;;;1.73;;
31128;SDS011;17777;48.770;8.944;2024-02-16T04:09:39;1.80;;;1.50;;
31128;SDS011;17777;48.770;8.944;2024-02-16T04:12:05;3.00;;;1.73;;
31128;SDS011;17777;48.770;8.944;2024-02-16T04:14:31;2.22;;;2.00;;
31128;SDS011;17777;48.770;8.944;2024-02-16T04:16:58;1.50;;;1.38;;
31128;SDS011;17777;48.770;8.944;2024-02-16T04:19:28;3.58;;;2.10;;
31128;SDS011;17777;48.770;8.944;2024-02-16T04:21:54;2.03;;;1.77;;
31128;SDS011;17777;48.770;8.944;2024-02-16T04:24:20;2.13;;;1.73;;
31128;SDS011;17777;48.770;8.944;2024-02-16T04:26:46;2.55;;;1.92;;
31128;SDS011;17777;48.770;8.944;2024-02-16T04:29:12;1.52;;;1.42;;
31128;SDS011;17777;48.770;8.944;2024-02-16T04:31:39;6.45;;;1.90;;
31128;SDS011;17777;48.770;8.944;2024-02-16T04:34:05;2.75;;;1.60;;
31128;SDS011;17777;48.770;8.944;2024-02-16T04:36:31;2.05;;;1.42;;
31128;SDS011;17777;48.770;8.944;2024-02-16T04:38:57;1.95;;;1.60;;
31128;SDS011;17777;48.770;8.944;2024-02-16T04:41:23;2.47;;;1.70;;
31128;SDS011;17777;48.770;8.944;2024-02-16T04:43:49;2.17;;;1.80;;
31128;SDS011;17777;48.770;8.944;2024-02-16T04:46:15;2.33;;;1.90;;
31128;SDS011;17777;48.770;8.944;2024-02-16T04:48:41;4.55;;;1.75;;
31128;SDS011;17777;48.770;8.944;2024-02-16T04:51:07;2.55;;;1.92;;
31128;SDS011;17777;48.770;8.944;2024-02-16T04:53:33;1.98;;;1.67;;
31128;SDS011;17777;48.770;8.944;2024-02-16T04:55:59;3.38;;;2.00;;
31128;SDS011;17777;48.770;8.944;2024-02-16T04:58:25;6.35;;;2.05;;
31128;SDS011;17777;48.770;8.944;2024-02-16T05:00:51;2.90;;;1.70;;
31128;SDS011;17777;48.770;8.944;2024-02-16T05:03:17;2.95;;;2.00;;
31128;SDS011;17777;48.770;8.944;2024-02-16T05:05:43;2.53;;;2.05;;
31128;SDS011;17777;48.770;8.944;2024-02-16T05:08:09;2.38;;;1.88;;
31128;SDS011;17777;48.770;8.944;2024-02-16T05:10:34;2.40;;;1.90;;
31128;SDS011;17777;48.770;8.944;2024-02-16T05:13:00;3.20;;;1.95;;
31128;SDS011;17777;48.770;8.944;2024-02-16T05:15:26;2.70;;;1.88;;
31128;SDS011;17777;48.770;8.944;2024-02-16T05:17:52;2.58;;;2.13;;
31128;SDS011;17777;48.770;8.944;2024-02-16T05:20:18;2.35;;;1.75;;
31128;SDS011;17777;48.770;8.944;2024-02-16T05:22:45;3.10;;;1.95;;
31128;SDS011;17777;48.770;8.944;2024-02-16T05:25:20;3.10;;;2.20;;
31128;SDS011;17777;48.770;8.944;2024-02-16T05:27:47;3.45;;;2.15;;
31128;SDS011;17777;48.770;8.944;2024-02-16T05:30:13;3.60;;;2.38;;
31128;SDS011;17777;48.770;8.944;2024-02-16T05:32:40;3.22;;;2.40;;
31128;SDS011;17777;48.770;8.944;2024-02-16T05:35:07;2.85;;;2.22;;
31128;SDS011;17777;48.770;8.944;2024-02-16T05:37:38;2.45;;;1.85;;
31128;SDS011;17777;48.770;8.944;2024-02-16T05:40:09;2.85;;;2.08;;
31128;SDS011;17777;48.770;8.944;2024-02-16T05:42:52;2.20;;;1.90;;
31128;SDS011;17777;48.770;8.944;2024-02-16T05:45:20;3.90;;;2.00;;
31128;SDS011;17777;48.770;8.944;2024-02-16T05:47:48;5.82;;;2.33;;
31128;SDS011;17777;48.770;8.944;2024-02-16T05:50:15;2.45;;;1.70;;
31128;SDS011;17777;48.770;8.944;2024-02-16T05:52:41;3.00;;;2.13;;
31128;SDS011;17777;48.770;8.944;2024-02-16T05:55:08;2.42;;;1.98;;
31128;SDS011;17777;48.770;8.944;2024-02-16T05:57:36;3.15;;;2.17;;
31128;SDS011;17777;48.770;8.944;2024-02-16T06:00:06;2.60;;;2.20;;
31128;SDS011;17777;48.770;8.944;2024-02-16T06:02:34;3.17;;;2.15;;
31128;SDS011;17777;48.770;8.944;2024-02-16T06:05:01;3.00;;;2.22;;
31128;SDS011;17777;48.770;8.944;2024-02-16T06:07:28;2.95;;;2.20;;
31128;SDS011;17777;48.770;8.944;2024-02-16T06:09:55;3.45;;;2.50;;
31128;SDS011;17777;48.770;8.944;2024-02-16T06:12:21;2.75;;;2.00;;
31128;SDS011;17777;48.770;8.944;2024-02-16T06:14:47;2.95;;;2.20;;
31128;SDS011;17777;48.770;8.944;2024-02-16T06:17:13;2.85;;;2.25;;
31128;SDS011;17777;48.770;8.944;2024-02-16T06:19:40;2.95;;;2.05;;
31128;SDS011;17777;48.770;8.944;2024-02-16T06:22:06;4.07;;;2.40;;
31128;SDS011;17777;48.770;8.944;2024-02-16T06:24:36;4.93;;;3.40;;
31128;SDS011;17777;48.770;8.944;2024-02-16T06:27:02;5.35;;;2.90;;
31128;SDS011;17777;48.770;8.944;2024-02-16T06:29:29;4.18;;;2.90;;
31128;SDS011;17777;48.770;8.944;2024-02-16T06:31:55;3.92;;;2.70;;
31128;SDS011;17777;48.770;8.944;2024-02-16T06:34:22;3.50;;;2.58;;
31128;SDS011;17777;48.770;8.944;2024-02-16T06:36:47;3.97;;;2.85;;
31128;SDS011;17777;48.770;8.944;2024-02-16T06:39:14;3.65;;;2.58;;
31128;SDS011;17777;48.770;8.944;2024-02-16T06:41:44;3.00;;;2.53;;
31128;SDS011;17777;48.770;8.944;2024-02-16T06:44:12;3.28;;;2.08;;
31128;SDS011;17777;48.770;8.944;2024-02-16T06:46:38;3.00;;;2.50;;
31128;SDS011;17777;48.770;8.944;2024-02-16T06:49:05;3.40;;;2.22;;
31128;SDS011;17777;48.770;8.944;2024-02-16T06:51:31;2.63;;;1.85;;
31128;SDS011;17777;48.770;8.944;2024-02-16T06:53:57;3.50;;;2.15;;
31128;SDS011;17777;48.770;8.944;2024-02-16T06:56:22;3.22;;;1.95;;
31128;SDS011;17777;48.770;8.944;2024-02-16T06:58:49;2.42;;;1.65;;
31128;SDS011;17777;48.770;8.944;2024-02-16T07:01:15;2.67;;;2.00;;
31128;SDS011;17777;48.770;8.944;2024-02-16T07:03:43;2.65;;;2.08;;
31128;SDS011;17777;48.770;8.944;2024-02-16T07:06:09;2.53;;;1.80;;
31128;SDS011;17777;48.770;8.944;2024-02-16T07:08:41;3.88;;;1.85;;
31128;SDS011;17777;48.770;8.944;2024-02-16T07:11:10;5.78;;;2.00;;
31128;SDS011;17777;48.770;8.944;2024-02-16T07:13:39;2.47;;;1.92;;
31128;SDS011;17777;48.770;8.944;2024-02-16T07:16:07;2.42;;;1.75;;
31128;SDS011;17777;48.770;8.944;2024-02-16T07:18:33;2.63;;;1.70;;
31128;SDS011;17777;48.770;8.944;2024-02-16T07:21:00;2.42;;;1.90;;
31128;SDS011;17777;48.770;8.944;2024-02-16T07:23:27;2.38;;;1.70;;
31128;SDS011;17777;48.770;8.944;2024-02-16T07:25:54;4.25;;;2.25;;
31128;SDS011;17777;48.770;8.944;2024-02-16T07:28:24;2.97;;;2.05;;
31128;SDS011;17777;48.770;8.944;2024-02-16T07:30:51;2.42;;;1.70;;
31128;SDS011;17777;48.770;8.944;2024-02-16T07:33:18;2.78;;;2.03;;
31128;SDS011;17777;48.770;8.944;2024-02-16T07:35:44;2.67;;;1.90;;
31128;SDS011;17777;48.770;8.944;2024-02-16T07:38:10;5.00;;;1.88;;
31128;SDS011;17777;48.770;8.944;2024-02-16T07:40:36;3.33;;;1.85;;
31128;SDS011;17777;48.770;8.944;2024-02-16T07:43:02;4.22;;;2.00;;
31128;SDS011;17777;48.770;8.944;2024-02-16T07:45:29;5.32;;;2.17;;
31128;SDS011;17777;48.770;8.944;2024-02-16T07:47:56;2.83;;;1.67;;
31128;SDS011;17777;48.770;8.944;2024-02-16T07:50:22;3.65;;;1.92;;
31128;SDS011;17777;48.770;8.944;2024-02-16T07:52:49;2.85;;;1.77;;
31128;SDS011;17777;48.770;8.944;2024-02-16T07:55:15;1.58;;;1.40;;
31128;SDS011;17777;48.770;8.944;2024-02-16T07:57:45;2.33;;;1.50;;
31128;SDS011;17777;48.770;8.944;2024-02-16T08:00:12;2.88;;;2.00;;
31128;SDS011;17777;48.770;8.944;2024-02-16T08:02:40;5.10;;;1.67;;
31128;SDS011;17777;48.770;8.944;2024-02-16T08:05:08;1.98;;;1.60;;
31128;SDS011;17777;48.770;8.944;2024-02-16T08:07:37;4.72;;;2.03;;
31128;SDS011;17777;48.770;8.944;2024-02-16T08:10:09;3.20;;;1.45;;
31128;SDS011;17777;48.770;8.944;2024-02-16T08:12:35;3.38;;;1.80;;
31128;SDS011;17777;48.770;8.944;2024-02-16T08:15:02;4.57;;;1.85;;
31128;SDS011;17777;48.770;8.944;2024-02-16T08:17:31;4.38;;;1.70;;
31128;SDS011;17777;48.770;8.944;2024-02-16T08:19:59;2.78;;;1.58;;
31128;SDS011;17777;48.770;8.944;2024-02-16T08:22:25;2.08;;;1.67;;
31128;SDS011;17777;48.770;8.944;2024-02-16T08:24:50;2.85;;;1.40;;
31128;SDS011;17777;48.770;8.944;2024-02-16T08:27:17;2.38;;;1.50;;
31128;SDS011;17777;48.770;8.944;2024-02-16T08:29:43;4.57;;;1.75;;
31128;SDS011;17777;48.770;8.944;2024-02-16T08:32:09;3.38;;;1.92;;
31128;SDS011;17777;48.770;8.944;2024-02-16T08:34:35;2.47;;;1.70;;
31128;SDS011;17777;48.770;8.944;2024-02-16T08:37:05;2.42;;;1.60;;
31128;SDS011;17777;48.770;8.944;2024-02-16T08:39:32;2.35;;;1.42;;
31128;SDS011;17777;48.770;8.944;2024-02-16T08:41:59;2.67;;;1.42;;
31128;SDS011;17777;48.770;8.944;2024-02-16T08:44:25;1.80;;;1.30;;
31128;SDS011;17777;48.770;8.944;2024-02-16T08:46:51;2.78;;;1.45;;
31128;SDS011;17777;48.770;8.944;2024-02-16T08:49:18;1.60;;;1.35;;
31128;SDS011;17777;48.770;8.944;2024-02-16T08:51:44;1.92;;;1.30;;
31128;SDS011;17777;48.770;8.944;2024-02-16T08:54:10;3.17;;;1.45;;
31128;SDS011;17777;48.770;8.944;2024-02-16T08:56:36;2.08;;;1.52;;
31128;SDS011;17777;48.770;8.944;2024-02-16T08:59:04;1.83;;;1.50;;
31128;SDS011;17777;48.770;8.944;2024-02-16T09:01:34;2.22;;;1.30;;
31128;SDS011;17777;48.770;8.944;2024-02-16T09:04:02;3.35;;;1.25;;
31128;SDS011;17777;48.770;8.944;2024-02-16T09:06:28;1.98;;;1.30;;
31128;SDS011;17777;48.770;8.944;2024-02-16T09:08:55;1.50;;;1.02;;
31128;SDS011;17777;48.770;8.944;2024-02-16T09:11:22;1.35;;;1.20;;
31128;SDS011;17777;48.770;8.944;2024-02-16T09:13:49;1.90;;;1.13;;
31128;SDS011;17777;48.770;8.944;2024-02-16T09:16:15;1.70;;;1.10;;
31128;SDS011;17777;48.770;8.944;2024-02-16T09:18:41;1.67;;;1.00;;
31128;SDS011;17777;48.770;8.944;2024-02-16T09:21:07;1.40;;;1.15;;
31128;SDS011;17777;48.770;8.944;2024-02-16T09:23:33;1.58;;;1.10;;
31128;SDS011;17777;48.770;8.944;2024-02-16T09:26:01;2.10;;;1.30;;
31128;SDS011;17777;48.770;8.944;2024-02-16T09:28:30;2.05;;;1.15;;
31128;SDS011;17777;48.770;8.944;2024-02-16T09:30:57;1.20;;;1.10;;
31128;SDS011;17777;48.770;8.944;2024-02-16T09:33:23;1.23;;;1.13;;
31128;SDS011;17777;48.770;8.944;2024-02-16T09:35:51;2.70;;;1.30;;
31128;SDS011;17777;48.770;8.944;2024-02-16T09:38:17;1.13;;;1.00;;
31128;SDS011;17777;48.770;8.944;2024-02-16T09:40:43;3.03;;;1.05;;
31128;SDS011;17777;48.770;8.944;2024-02-16T09:43:10;2.00;;;1.38;;
31128;SDS011;17777;48.770;8.944;2024-02-16T09:45:45;1.70;;;1.00;;
31128;SDS011;17777;48.770;8.944;2024-02-16T09:48:12;2.80;;;1.40;;
31128;SDS011;17777;48.770;8.944;2024-02-16T09:50:39;2.15;;;1.20;;
31128;SDS011;17777;48.770;8.944;2024-02-16T09:53:05;2.20;;;1.35;;
31128;SDS011;17777;48.770;8.944;2024-02-16T09:55:32;1.70;;;1.30;;
31128;SDS011;17777;48.770;8.944;2024-02-16T09:57:59;1.35;;;1.05;;
31128;SDS011;17777;48.770;8.944;2024-02-16T10:00:26;2.45;;;1.20;;
31128;SDS011;17777;48.770;8.944;2024-02-16T10:02:52;2.28;;;1.30;;
31128;SDS011;17777;48.770;8.944;2024-02-16T10:05:19;1.77;;;1.05;;
31128;SDS011;17777;48.770;8.944;2024-02-16T10:07:46;1.58;;;1.20;;
31128;SDS011;17777;48.770;8.944;2024-02-16T10:10:25;2.05;;;1.30;;
31128;SDS011;17777;48.770;8.944;2024-02-16T10:13:04;2.05;;;1.17;;
31128;SDS011;17777;48.770;8.944;2024-02-16T10:15:34;3.05;;;1.42;;
31128;SDS011;17777;48.770;8.944;2024-02-16T10:18:04;3.85;;;1.35;;
31128;SDS011;17777;48.770;8.944;2024-02-16T10:20:34;2.00;;;0.95;;
31128;SDS011;17777;48.770;8.944;2024-02-16T10:23:10;1.55;;;1.08;;
31128;SDS011;17777;48.770;8.944;2024-02-16T10:25:37;1.40;;;0.88;;
31128;SDS011;17777;48.770;8.944;2024-02-16T10:28:09;1.73;;;0.88;;
31128;SDS011;17777;48.770;8.944;2024-02-16T10:30:40;1.52;;;0.98;;
31128;SDS011;17777;48.770;8.944;2024-02-16T10:33:09;0.95;;;0.60;;
31128;SDS011;17777;48.770;8.944;2024-02-16T10:35:39;0.88;;;0.82;;
31128;SDS011;17777;48.770;8.944;2024-02-16T10:38:07;2.03;;;1.23;;
31128;SDS011;17777;48.770;8.944;2024-02-16T10:40:41;1.73;;;1.20;;
31128;SDS011;17777;48.770;8.944;2024-02-16T10:43:08;1.77;;;1.00;;
31128;SDS011;17777;48.770;8.944;2024-02-16T10:45:36;1.80;;;1.15;;
31128;SDS011;17777;48.770;8.944;2024-02-16T10:48:03;1.30;;;1.00;;
31128;SDS011;17777;48.770;8.944;2024-02-16T10:50:31;1.10;;;0.90;;
31128;SDS011;17777;48.770;8.944;2024-02-16T10:53:00;1.33;;;0.80;;
31128;SDS011;17777;48.770;8.944;2024-02-16T10:55:34;1.23;;;1.02;;
31128;SDS011;17777;48.770;8.944;2024-02-16T10:58:00;1.70;;;0.80;;
31128;SDS011;17777;48.770;8.944;2024-02-16T11:00:26;6.65;;;1.20;;
31128;SDS011;17777;48.770;8.944;2024-02-16T11:02:56;2.92;;;1.02;;
31128;SDS011;17777;48.770;8.944;2024-02-16T11:05:31;1.85;;;0.73;;
31128;SDS011;17777;48.770;8.944;2024-02-16T11:08:05;1.52;;;0.90;;
31128;SDS011;17777;48.770;8.944;2024-02-16T11:10:39;1.52;;;0.70;;
31128;SDS011;17777;48.770;8.944;2024-02-16T11:13:05;1.33;;;0.90;;
31128;SDS011;17777;48.770;8.944;2024-02-16T11:15:32;1.38;;;0.80;;
31128;SDS011;17777;48.770;8.944;2024-02-16T11:18:03;1.10;;;0.75;;
31128;SDS011;17777;48.770;8.944;2024-02-16T11:20:38;1.40;;;0.90;;
31128;SDS011;17777;48.770;8.944;2024-02-16T11:23:05;2.28;;;1.10;;
31128;SDS011;17777;48.770;8.944;2024-02-16T11:25:34;1.80;;;0.88;;
31128;SDS011;17777;48.770;8.944;2024-02-16T11:28:01;1.00;;;0.80;;
31128;SDS011;17777;48.770;8.944;2024-02-16T11:30:31;1.70;;;0.93;;
31128;SDS011;17777;48.770;8.944;2024-02-16T11:33:00;1.20;;;0.80;;
31128;SDS011;17777;48.770;8.944;2024-02-16T11:35:26;2.17;;;1.00;;
31128;SDS011;17777;48.770;8.944;2024-02-16T11:37:51;1.20;;;0.75;;
31128;SDS011;17777;48.770;8.944;2024-02-16T11:40:20;1.75;;;0.95;;
31128;SDS011;17777;48.770;8.944;2024-02-16T11:42:46;1.40;;;0.80;;
31128;SDS011;17777;48.770;8.944;2024-02-16T11:45:12;1.65;;;0.80;;
31128;SDS011;17777;48.770;8.944;2024-02-16T11:47:38;2.72;;;0.95;;
31128;SDS011;17777;48.770;8.944;2024-02-16T11:50:08;0.95;;;0.80;;
31128;SDS011;17777;48.770;8.944;2024-02-16T11:52:41;2.05;;;1.15;;
31128;SDS011;17777;48.770;8.944;2024-02-16T11:55:10;4.45;;;0.98;;
31128;SDS011;17777;48.770;8.944;2024-02-16T11:57:37;1.42;;;1.02;;
31128;SDS011;17777;48.770;8.944;2024-02-16T12:00:04;1.40;;;1.02;;
31128;SDS011;17777;48.770;8.944;2024-02-16T12:02:36;3.08;;;1.40;;
31128;SDS011;17777;48.770;8.944;2024-02-16T12:05:02;1.38;;;0.98;;
31128;SDS011;17777;48.770;8.944;2024-02-16T12:07:30;1.17;;;0.90;;
31128;SDS011;17777;48.770;8.944;2024-02-16T12:09:59;2.63;;;1.05;;
31128;SDS011;17777;48.770;8.944;2024-02-16T12:12:27;2.15;;;1.15;;
31128;SDS011;17777;48.770;8.944;2024-02-16T12:14:53;2.00;;;1.10;;
31128;SDS011;17777;48.770;8.944;2024-02-16T12:17:19;1.45;;;0.90;;
31128;SDS011;17777;48.770;8.944;2024-02-16T12:19:45;1.15;;;0.95;;
31128;SDS011;17777;48.770;8.944;2024-02-16T12:22:22;1.75;;;0.80;;
31128;SDS011;17777;48.770;8.944;2024-02-16T12:24:48;1.33;;;0.82;;
31128;SDS011;17777;48.770;8.944;2024-02-16T12:27:15;3.78;;;1.20;;
31128;SDS011;17777;48.770;8.944;2024-02-16T12:29:41;2.55;;;1.10;;
31128;SDS011;17777;48.770;8.944;2024-02-16T12:32:08;1.50;;;0.77;;
31128;SDS011;17777;48.770;8.944;2024-02-16T12:34:41;3.13;;;0.90;;
31128;SDS011;17777;48.770;8.944;2024-02-16T12:37:07;1.40;;;0.90;;
31128;SDS011;17777;48.770;8.944;2024-02-16T12:39:35;1.20;;;0.90;;
31128;SDS011;17777;48.770;8.944;2024-02-16T12:42:01;1.20;;;0.98;;
31128;SDS011;17777;48.770;8.944;2024-02-16T12:44:27;1.10;;;0.80;;
31128;SDS011;17777;48.770;8.944;2024-02-16T12:46:53;2.03;;;1.10;;
31128;SDS011;17777;48.770;8.944;2024-02-16T12:49:19;2.90;;;1.10;;
31128;SDS011;17777;48.770;8.944;2024-02-16T12:51:48;2.80;;;1.08;;
31128;SDS011;17777;48.770;8.944;2024-02-16T12:54:15;3.88;;;1.17;;
31128;SDS011;17777;48.770;8.944;2024-02-16T12:56:44;5.10;;;1.10;;
31128;SDS011;17777;48.770;8.944;2024-02-16T12:59:11;2.50;;;1.10;;
31128;SDS011;17777;48.770;8.944;2024-02-16T13:01:37;2.85;;;1.40;;
31128;SDS011;17777;48.770;8.944;2024-02-16T13:04:02;3.75;;;1.15;;
31128;SDS011;17777;48.770;8.944;2024-02-16T13:06:29;2.67;;;0.60;;
31128;SDS011;17777;48.770;8.944;2024-02-16T13:08:55;2.65;;;0.90;;
31128;SDS011;17777;48.770;8.944;2024-02-16T13:11:21;2.25;;;0.95;;
31128;SDS011;17777;48.770;8.944;2024-02-16T13:13:47;1.77;;;0.80;;
31128;SDS011;17777;48.770;8.944;2024-02-16T13:16:13;1.58;;;0.95;;
31128;SDS011;17777;48.770;8.944;2024-02-16T13:18:39;2.65;;;0.75;;
31128;SDS011;17777;48.770;8.944;2024-02-16T13:21:06;3.88;;;0.88;;
31128;SDS011;17777;48.770;8.944;2024-02-16T13:23:32;2.00;;;0.88;;
31128;SDS011;17777;48.770;8.944;2024-02-16T13:25:57;1.80;;;0.70;;
31128;SDS011;17777;48.770;8.944;2024-02-16T13:28:23;2.05;;;0.70;;
31128;SDS011;17777;48.770;8.944;2024-02-16T13:33:15;3.92;;;1.05;;
31128;SDS011;17777;48.770;8.944;2024-02-16T13:35:41;2.30;;;0.82;;
31128;SDS011;17777;48.770;8.944;2024-02-16T13:38:06;2.58;;;1.00;;
31128;SDS011;17777;48.770;8.944;2024-02-16T13:40:33;14.48;;;1.10;;
31128;SDS011;17777;48.770;8.944;2024-02-16T13:43:00;4.68;;;1.38;;
31128;SDS011;17777;48.770;8.944;2024-02-16T13:45:29;4.95;;;0.98;;
31128;SDS011;17777;48.770;8.944;2024-02-16T13:50:38;1.63;;;0.95;;
31128;SDS011;17777;48.770;8.944;2024-02-16T13:53:04;2.60;;;1.10;;
31128;SDS011;17777;48.770;8.944;2024-02-16T13:55:30;2.25;;;1.17;;
31128;SDS011;17777;48.770;8.944;2024-02-16T13:57:55;3.00;;;1.30;;
31128;SDS011;17777;48.770;8.944;2024-02-16T14:00:21;2.75;;;0.90;;
31128;SDS011;17777;48.770;8.944;2024-02-16T14:02:47;2.15;;;0.88;;
31128;SDS011;17777;48.770;8.944;2024-02-16T14:05:13;2.58;;;0.80;;
31128;SDS011;17777;48.770;8.944;2024-02-16T14:07:39;4.65;;;1.20;;
31128;SDS011;17777;48.770;8.944;2024-02-16T14:10:05;2.42;;;1.30;;
31128;SDS011;17777;48.770;8.944;2024-02-16T14:12:32;5.25;;;0.98;;
31128;SDS011;17777;48.770;8.944;2024-02-16T14:14:58;2.10;;;0.93;;
31128;SDS011;17777;48.770;8.944;2024-02-16T14:17:24;2.15;;;0.75;;
31128;SDS011;17777;48.770;8.944;2024-02-16T14:19:50;3.03;;;1.20;;
31128;SDS011;17777;48.770;8.944;2024-02-16T14:22:16;1.45;;;0.70;;
31128;SDS011;17777;48.770;8.944;2024-02-16T14:24:42;3.05;;;0.95;;
31128;SDS011;17777;48.770;8.944;2024-02-16T14:27:08;5.65;;;1.35;;
31128;SDS011;17777;48.770;8.944;2024-02-16T14:29:34;1.92;;;0.80;;
31128;SDS011;17777;48.770;8.944;2024-02-16T14:31:59;2.75;;;0.88;;
31128;SDS011;17777;48.770;8.944;2024-02-16T14:34:25;5.68;;;0.80;;
31128;SDS011;17777;48.770;8.944;2024-02-16T14:36:51;2.33;;;0.80;;
31128;SDS011;17777;48.770;8.944;2024-02-16T14:39:17;2.53;;;0.75;;
31128;SDS011;17777;48.770;8.944;2024-02-16T14:41:43;1.25;;;0.70;;
31128;SDS011;17777;48.770;8.944;2024-02-16T14:44:08;2.58;;;0.85;;
31128;SDS011;17777;48.770;8.944;2024-02-16T14:46:36;2.25;;;0.70;;
31128;SDS011;17777;48.770;8.944;2024-02-16T14:49:01;1.92;;;0.80;;
31128;SDS011;17777;48.770;8.944;2024-02-16T14:51:27;1.40;;;0.70;;